YCSI weather

Cassilis Rotherw Airport
New South Wales, Australia

Public forecast

Using degrees Celsius for public forecast. Weather courtesy of forecast.io.

METAR (pilot weather report)

Closest report is Mudgee Airport, 38.0 nm (70.5 km) SSW. Retrieved 2019/07/17 03:00 UTC (35 minutes ago):

YMDG 170300Z AUTO 25012KT 9999 // NCD 14/04 Q1018

TAF (pilot weather forecast)

Forecast is more than 12 hours old.

Closest forecast is Tamworth Airport, 71.4 nm (132.2 km) NE. Retrieved 2019/07/16 00:36 UTC (1 day ago):

TAF YSTW 162306Z 1700/1718 18005KT CAVOK BECMG 1700/1702 31006KT CAVOK FM171000 27006KT 9999 SCT035